createdAt,value
2023-02-18T00:00:23.662Z,54.25
2023-02-18T00:02:52.538Z,54.62
2023-02-18T00:05:19.380Z,55.61
2023-02-18T00:07:45.906Z,55.44
2023-02-18T00:10:15.276Z,55.76
2023-02-18T00:12:42.260Z,55.91
2023-02-18T00:15:09.724Z,56.52
2023-02-18T00:17:36.426Z,55.87
2023-02-18T00:20:04.496Z,56.46
2023-02-18T00:22:30.926Z,55.26
2023-02-18T00:24:57.335Z,56.41
2023-02-18T00:27:23.749Z,56.39
2023-02-18T00:29:50.199Z,57.06
2023-02-18T00:32:16.626Z,55.20
2023-02-18T00:34:43.438Z,56.86
2023-02-18T00:37:09.858Z,56.43
2023-02-18T00:39:36.290Z,57.66
2023-02-18T00:42:02.776Z,55.74
2023-02-18T00:44:29.219Z,57.66
2023-02-18T00:46:55.642Z,54.82
2023-02-18T00:49:22.097Z,54.99
2023-02-18T00:51:48.540Z,56.43
2023-02-18T00:54:14.962Z,58.84
2023-02-18T00:56:41.365Z,56.91
2023-02-18T00:59:07.829Z,56.35
2023-02-18T01:01:35.232Z,57.78
2023-02-18T01:04:01.804Z,58.02
2023-02-18T01:06:28.353Z,56.28
2023-02-18T01:08:54.809Z,58.14
2023-02-18T01:11:21.445Z,56.25
2023-02-18T01:13:48.255Z,57.16
2023-02-18T01:16:14.754Z,57.15
2023-02-18T01:18:41.241Z,55.70
2023-02-18T01:21:09.311Z,57.36
2023-02-18T01:23:37.823Z,56.93
2023-02-18T01:26:05.086Z,56.87
2023-02-18T01:28:31.849Z,57.99
2023-02-18T01:30:58.645Z,57.63
2023-02-18T01:33:25.073Z,57.39
2023-02-18T01:35:53.419Z,57.59
2023-02-18T01:38:19.864Z,59.38
2023-02-18T01:40:51.285Z,55.63
2023-02-18T01:43:20.050Z,58.19
2023-02-18T01:46:06.654Z,59.41
2023-02-18T01:49:00.111Z,57.88
2023-02-18T01:51:35.766Z,57.65
2023-02-18T01:54:02.194Z,56.71
2023-02-18T01:56:42.501Z,55.50
2023-02-18T01:59:16.805Z,55.86
2023-02-18T02:01:45.725Z,56.18
2023-02-18T02:04:13.151Z,56.57
2023-02-18T02:06:39.586Z,56.21
2023-02-18T02:09:10.035Z,57.92
2023-02-18T02:12:10.099Z,58.17
2023-02-18T02:15:30.801Z,57.50
2023-02-18T02:18:23.982Z,58.30
2023-02-18T02:21:08.806Z,58.81
2023-02-18T02:23:57.911Z,57.11
2023-02-18T02:26:49.272Z,58.67
2023-02-18T02:29:15.617Z,58.03
2023-02-18T02:31:45.000Z,58.15
2023-02-18T02:34:29.752Z,58.22
2023-02-18T02:37:18.673Z,57.05
2023-02-18T02:40:13.299Z,57.94
2023-02-18T02:42:58.568Z,60.05
2023-02-18T02:45:43.807Z,58.60
2023-02-18T02:48:29.844Z,57.68
2023-02-18T02:51:30.345Z,59.91
2023-02-18T02:54:10.061Z,57.39
2023-02-18T02:56:36.528Z,58.76
2023-02-18T02:59:08.176Z,58.28
2023-02-18T03:01:43.716Z,57.57
2023-02-18T03:04:35.031Z,58.59
2023-02-18T03:07:29.492Z,57.69
2023-02-18T03:10:22.061Z,58.80
2023-02-18T03:13:16.613Z,58.96
2023-02-18T03:16:05.224Z,57.81
2023-02-18T03:18:39.016Z,57.71
2023-02-18T03:21:29.493Z,60.48
2023-02-18T03:24:03.630Z,59.63
2023-02-18T03:26:34.364Z,60.59
2023-02-18T03:29:07.357Z,60.61
2023-02-18T03:31:38.452Z,59.85
2023-02-18T03:36:40.292Z,61.04
2023-02-18T03:39:15.070Z,63.83
2023-02-18T03:41:42.298Z,64.42
2023-02-18T03:44:10.651Z,62.02
2023-02-18T03:46:39.673Z,62.57
2023-02-18T03:49:06.423Z,65.13
2023-02-18T03:51:32.966Z,63.62
2023-02-18T03:53:59.399Z,64.95
2023-02-18T03:56:25.825Z,64.45
2023-02-18T03:58:52.215Z,64.88
2023-02-18T04:01:18.769Z,63.83
2023-02-18T04:03:45.182Z,64.22
2023-02-18T04:06:11.627Z,64.77
2023-02-18T04:08:38.062Z,63.36
2023-02-18T04:11:05.464Z,62.32
2023-02-18T04:13:32.096Z,60.56
2023-02-18T04:15:58.585Z,60.32
2023-02-18T04:18:25.120Z,61.13
2023-02-18T04:20:52.153Z,62.95
2023-02-18T04:23:18.564Z,62.89
2023-02-18T04:25:44.949Z,63.56
2023-02-18T04:28:15.201Z,60.09
2023-02-18T04:30:41.812Z,60.24
2023-02-18T04:33:08.352Z,63.82
2023-02-18T04:35:34.884Z,62.49
2023-02-18T04:38:01.310Z,61.29
2023-02-18T04:40:30.558Z,63.00
2023-02-18T04:42:58.768Z,63.46
2023-02-18T04:45:26.369Z,64.16
2023-02-18T04:47:53.525Z,66.57
2023-02-18T04:50:20.568Z,63.68
2023-02-18T04:52:47.470Z,67.25
2023-02-18T04:55:13.988Z,65.68
2023-02-18T04:57:40.421Z,68.25
2023-02-18T05:00:09.449Z,68.73
2023-02-18T05:02:35.867Z,71.21
2023-02-18T05:05:02.293Z,70.73
2023-02-18T05:07:28.672Z,71.11
2023-02-18T05:09:55.142Z,71.74
2023-02-18T05:12:21.601Z,69.97
2023-02-18T05:14:48.032Z,70.37
2023-02-18T05:17:14.561Z,72.17
2023-02-18T05:19:41.037Z,71.55
2023-02-18T05:22:07.477Z,72.97
2023-02-18T05:24:34.001Z,73.31
2023-02-18T05:27:00.496Z,76.99
2023-02-18T05:29:26.912Z,75.60
2023-02-18T05:31:53.530Z,72.75
2023-02-18T05:34:20.187Z,74.29
2023-02-18T05:36:46.719Z,74.87
2023-02-18T05:39:13.335Z,74.99
2023-02-18T05:41:39.750Z,75.73
2023-02-18T05:44:25.176Z,74.28
2023-02-18T05:46:51.664Z,75.27
2023-02-18T05:49:18.090Z,75.23
2023-02-18T05:51:44.552Z,76.55
2023-02-18T05:54:11.033Z,78.01
2023-02-18T05:56:37.477Z,78.42
2023-02-18T05:59:03.924Z,79.75
2023-02-18T06:01:30.426Z,80.29
2023-02-18T06:03:56.879Z,80.27
2023-02-18T06:06:23.802Z,79.35
2023-02-18T06:08:50.247Z,79.63
2023-02-18T06:11:16.649Z,79.13
2023-02-18T06:13:43.125Z,78.98
2023-02-18T06:16:10.029Z,77.56
2023-02-18T06:18:36.884Z,79.55
2023-02-18T06:21:03.849Z,77.93
2023-02-18T06:23:30.268Z,76.67
2023-02-18T06:25:56.852Z,78.98
2023-02-18T06:28:23.297Z,79.66
2023-02-18T06:30:50.422Z,80.45
2023-02-18T06:33:17.228Z,79.59
2023-02-18T06:36:02.646Z,78.76
2023-02-18T06:38:29.374Z,77.84
2023-02-18T06:40:55.810Z,77.60
2023-02-18T06:43:22.366Z,76.66
2023-02-18T06:45:48.768Z,75.95
2023-02-18T06:48:16.808Z,76.51
2023-02-18T06:50:43.612Z,76.99
2023-02-18T06:53:10.343Z,76.32
2023-02-18T06:55:36.899Z,76.51
2023-02-18T06:58:03.782Z,76.93
2023-02-18T07:00:30.487Z,76.61
2023-02-18T07:02:56.977Z,76.88
2023-02-18T07:05:23.540Z,77.13
2023-02-18T07:07:49.946Z,76.99
2023-02-18T07:10:16.481Z,77.41
2023-02-18T07:12:42.948Z,77.55
2023-02-18T07:15:09.839Z,77.54
2023-02-18T07:17:36.404Z,77.26
2023-02-18T07:20:04.491Z,77.27
2023-02-18T07:22:30.944Z,78.07
2023-02-18T07:24:57.424Z,76.69
2023-02-18T07:27:23.820Z,78.12
2023-02-18T07:29:50.567Z,78.23
2023-02-18T07:32:19.356Z,77.56
2023-02-18T07:34:46.109Z,77.68
2023-02-18T07:37:12.612Z,77.35
2023-02-18T07:39:43.199Z,77.04
2023-02-18T07:42:10.751Z,77.05
2023-02-18T07:44:38.135Z,75.98
2023-02-18T07:47:06.292Z,77.28
2023-02-18T07:49:33.105Z,79.50
2023-02-18T07:51:59.595Z,80.20
2023-02-18T07:54:26.509Z,78.81
2023-02-18T07:56:54.753Z,78.61
2023-02-18T07:59:21.241Z,77.42
2023-02-18T08:01:47.717Z,77.56
2023-02-18T08:04:15.361Z,76.98
2023-02-18T08:06:47.284Z,77.62
2023-02-18T08:09:14.712Z,79.20
2023-02-18T08:11:41.566Z,78.45
2023-02-18T08:14:08.147Z,78.88
2023-02-18T08:16:34.824Z,79.28
2023-02-18T08:19:03.499Z,80.67
2023-02-18T08:21:30.782Z,79.11
2023-02-18T08:23:59.198Z,80.05
2023-02-18T08:26:25.740Z,79.23
2023-02-18T08:28:52.165Z,79.66
2023-02-18T08:31:25.015Z,80.13
2023-02-18T08:33:52.612Z,81.58
2023-02-18T08:36:19.194Z,84.32
2023-02-18T08:38:46.213Z,84.33
2023-02-18T08:41:14.482Z,84.53
2023-02-18T08:43:41.396Z,83.09
2023-02-18T08:46:08.000Z,85.08
2023-02-18T08:48:42.400Z,85.13
2023-02-18T08:51:20.816Z,85.99
2023-02-18T08:53:47.420Z,83.42
2023-02-18T08:56:14.880Z,84.21
2023-02-18T08:58:41.990Z,82.94
2023-02-18T09:01:10.996Z,83.10
2023-02-18T09:03:38.107Z,83.55
2023-02-18T09:06:05.026Z,84.52
2023-02-18T09:08:31.506Z,85.10
2023-02-18T09:10:59.796Z,87.23
2023-02-18T09:13:27.106Z,86.46
2023-02-18T09:16:05.665Z,87.41
2023-02-18T09:18:32.392Z,90.56
2023-02-18T09:21:00.455Z,89.07
2023-02-18T09:23:29.488Z,88.55
2023-02-18T09:25:56.155Z,90.19
2023-02-18T09:28:23.364Z,88.53
2023-02-18T09:30:50.012Z,86.97
2023-02-18T09:33:17.191Z,88.49
2023-02-18T09:35:45.467Z,88.84
2023-02-18T09:38:14.375Z,85.96
2023-02-18T09:40:45.346Z,88.07
2023-02-18T09:43:30.625Z,87.44
2023-02-18T09:45:59.217Z,87.38
2023-02-18T09:48:29.127Z,88.17
2023-02-18T09:50:55.686Z,84.68
2023-02-18T09:53:24.086Z,84.00
2023-02-18T09:55:53.833Z,84.00
2023-02-18T09:58:30.157Z,85.61
2023-02-18T10:01:05.969Z,84.88
2023-02-18T10:03:32.685Z,85.37
2023-02-18T10:06:04.710Z,83.44
2023-02-18T10:08:39.957Z,84.81
2023-02-18T10:11:16.587Z,83.52
2023-02-18T10:13:44.184Z,81.85
2023-02-18T10:16:19.013Z,82.38
2023-02-18T10:18:49.187Z,83.81
2023-02-18T10:21:19.994Z,84.28
2023-02-18T10:24:12.085Z,82.73
2023-02-18T10:26:39.111Z,84.57
2023-02-18T10:29:14.645Z,81.91
2023-02-18T10:31:45.592Z,81.09
2023-02-18T10:34:39.434Z,81.84
2023-02-18T10:37:36.681Z,81.97
2023-02-18T10:40:35.431Z,81.87
2023-02-18T10:43:32.427Z,82.45
2023-02-18T10:46:04.902Z,82.89
2023-02-18T10:48:34.136Z,79.52
2023-02-18T10:51:08.719Z,81.18
2023-02-18T10:53:39.169Z,80.17
2023-02-18T10:56:06.886Z,80.62
2023-02-18T10:58:43.138Z,80.61
2023-02-18T11:01:23.363Z,78.91
2023-02-18T11:03:52.958Z,79.31
2023-02-18T11:06:31.306Z,80.78
2023-02-18T11:08:59.246Z,80.41
2023-02-18T11:11:31.340Z,77.68
2023-02-18T11:14:04.397Z,77.34
2023-02-18T11:16:45.412Z,77.14
2023-02-18T11:19:36.864Z,81.15
2023-02-18T11:22:20.258Z,80.42
2023-02-18T11:24:50.367Z,77.78
2023-02-18T11:27:28.554Z,77.94
2023-02-18T11:30:03.250Z,78.42
2023-02-18T11:32:30.958Z,80.46
2023-02-18T11:34:57.961Z,80.42
2023-02-18T11:37:24.599Z,81.85
2023-02-18T11:39:54.682Z,80.45
2023-02-18T11:42:24.670Z,77.54
2023-02-18T11:44:56.858Z,81.09
2023-02-18T11:47:37.073Z,81.43
2023-02-18T11:50:03.417Z,81.34
2023-02-18T11:52:34.468Z,80.97
2023-02-18T11:55:07.729Z,83.15
2023-02-18T11:57:38.626Z,83.21
2023-02-18T12:00:19.628Z,81.43
2023-02-18T12:02:47.243Z,83.54
2023-02-18T12:05:25.628Z,82.11
2023-02-18T12:08:05.602Z,81.18
2023-02-18T12:10:46.630Z,79.63
2023-02-18T12:13:34.522Z,78.58
2023-02-18T12:16:00.836Z,79.41
2023-02-18T12:18:58.219Z,79.50
2023-02-18T12:22:14.054Z,78.75
2023-02-18T12:25:09.444Z,80.39
2023-02-18T12:27:46.196Z,79.30
2023-02-18T12:30:36.108Z,80.75
2023-02-18T12:33:11.617Z,80.63
2023-02-18T12:35:52.139Z,80.18
2023-02-18T12:38:38.463Z,79.91
2023-02-18T12:41:29.550Z,79.75
2023-02-18T12:46:40.281Z,79.72
2023-02-18T12:49:43.136Z,78.99
2023-02-18T12:52:21.696Z,81.49
2023-02-18T12:55:03.404Z,81.35
2023-02-18T12:57:50.148Z,81.38
2023-02-18T13:00:52.511Z,80.26
2023-02-18T13:03:46.111Z,81.41
2023-02-18T13:06:25.254Z,81.91
2023-02-18T13:08:54.620Z,82.01
2023-02-18T13:11:46.203Z,82.75
2023-02-18T13:14:19.003Z,83.91
2023-02-18T13:16:48.662Z,81.65
2023-02-18T13:19:28.954Z,81.93
2023-02-18T13:22:16.588Z,82.42
2023-02-18T13:24:47.649Z,81.11
2023-02-18T13:27:42.010Z,82.49
2023-02-18T13:30:20.860Z,79.91
2023-02-18T13:33:11.883Z,80.78
2023-02-18T13:35:45.146Z,83.46
2023-02-18T13:38:45.911Z,82.65
2023-02-18T13:41:12.677Z,82.79
2023-02-18T13:43:39.843Z,79.67
2023-02-18T13:46:10.742Z,82.86
2023-02-18T13:48:45.754Z,80.11
2023-02-18T13:51:14.667Z,81.86
2023-02-18T13:53:44.494Z,80.28
2023-02-18T13:56:29.114Z,81.98
2023-02-18T13:59:01.648Z,82.57
2023-02-18T14:01:41.515Z,82.55
2023-02-18T14:04:36.968Z,81.90
2023-02-18T14:07:18.610Z,80.84
2023-02-18T14:09:46.250Z,81.39
2023-02-18T14:12:30.815Z,83.52
2023-02-18T14:14:58.843Z,79.82
2023-02-18T14:17:33.318Z,86.44
2023-02-18T14:19:59.691Z,85.79
2023-02-18T14:22:31.794Z,87.40
2023-02-18T14:25:11.016Z,87.25
2023-02-18T14:27:40.076Z,85.92
2023-02-18T14:30:22.067Z,87.30
2023-02-18T14:32:51.240Z,87.75
2023-02-18T14:35:32.622Z,86.91
2023-02-18T14:38:17.928Z,88.39
2023-02-18T14:40:53.514Z,86.10
2023-02-18T14:43:23.051Z,87.51
2023-02-18T14:46:00.379Z,84.76
2023-02-18T14:48:59.280Z,85.59
2023-02-18T14:51:29.508Z,88.29
2023-02-18T14:54:02.721Z,84.87
2023-02-18T14:56:29.441Z,84.76
2023-02-18T14:58:59.967Z,88.40
2023-02-18T15:01:31.266Z,89.47
2023-02-18T15:03:58.002Z,87.04
2023-02-18T15:06:36.819Z,87.61
2023-02-18T15:09:23.468Z,88.47
2023-02-18T15:11:55.136Z,88.76
2023-02-18T15:14:25.502Z,88.27
2023-02-18T15:16:53.302Z,87.56
2023-02-18T15:19:23.071Z,86.78
2023-02-18T15:21:51.261Z,88.17
2023-02-18T15:24:23.398Z,88.85
2023-02-18T15:26:51.997Z,85.38
2023-02-18T15:29:22.299Z,84.63
2023-02-18T15:31:49.919Z,84.33
2023-02-18T15:34:37.621Z,85.30
2023-02-18T15:37:13.587Z,85.90
2023-02-18T15:39:42.524Z,84.77
2023-02-18T15:42:34.051Z,85.74
2023-02-18T15:45:16.134Z,81.73
2023-02-18T15:47:45.232Z,81.96
2023-02-18T15:50:19.407Z,82.35
2023-02-18T15:52:46.142Z,82.74
2023-02-18T15:55:19.552Z,82.67
2023-02-18T15:57:46.295Z,80.36
2023-02-18T16:00:27.464Z,82.13
2023-02-18T16:03:13.140Z,80.29
2023-02-18T16:05:42.676Z,81.13
2023-02-18T16:08:35.364Z,78.36
2023-02-18T16:11:24.862Z,80.75
2023-02-18T16:13:54.121Z,82.47
2023-02-18T16:16:27.457Z,79.95
2023-02-18T16:18:54.033Z,80.23
2023-02-18T16:21:20.432Z,80.02
2023-02-18T16:23:59.469Z,79.51
2023-02-18T16:26:42.597Z,80.83
2023-02-18T16:29:15.584Z,83.08
2023-02-18T16:31:43.438Z,82.99
2023-02-18T16:34:09.944Z,83.35
2023-02-18T16:36:36.525Z,83.47
2023-02-18T16:39:03.507Z,83.38
2023-02-18T16:41:30.097Z,83.69
2023-02-18T16:43:57.245Z,82.90
2023-02-18T16:46:24.939Z,84.13
2023-02-18T16:48:56.793Z,83.22
2023-02-18T16:51:31.625Z,84.78
2023-02-18T16:53:58.362Z,84.51
2023-02-18T16:56:27.847Z,83.40
2023-02-18T16:58:54.275Z,84.26
2023-02-18T17:01:25.157Z,82.51
2023-02-18T17:03:52.497Z,82.47
2023-02-18T17:06:19.668Z,79.02
2023-02-18T17:08:46.174Z,81.97
2023-02-18T17:11:34.523Z,81.70
2023-02-18T17:14:04.834Z,80.03
2023-02-18T17:16:31.602Z,79.02
2023-02-18T17:18:58.105Z,81.03
2023-02-18T17:21:26.044Z,78.95
2023-02-18T17:23:52.730Z,79.33
2023-02-18T17:26:20.534Z,78.66
2023-02-18T17:28:47.388Z,78.77
2023-02-18T17:31:20.221Z,78.78
2023-02-18T17:33:47.433Z,77.55
2023-02-18T17:36:13.971Z,78.02
2023-02-18T17:38:40.456Z,78.29
2023-02-18T17:41:07.770Z,77.00
2023-02-18T17:43:34.933Z,76.86
2023-02-18T17:46:01.366Z,76.09
2023-02-18T17:48:28.600Z,77.40
2023-02-18T17:50:55.707Z,78.44
2023-02-18T17:53:22.493Z,78.34
2023-02-18T17:55:49.819Z,76.67
2023-02-18T17:58:17.580Z,77.16
2023-02-18T18:00:50.302Z,76.51
2023-02-18T18:03:17.293Z,76.62
2023-02-18T18:05:48.873Z,74.21
2023-02-18T18:08:15.703Z,77.16
2023-02-18T18:10:50.199Z,77.75
2023-02-18T18:13:26.515Z,77.42
2023-02-18T18:15:53.985Z,75.00
2023-02-18T18:18:21.865Z,76.94
2023-02-18T18:20:52.843Z,75.61
2023-02-18T18:23:21.115Z,75.85
2023-02-18T18:25:53.344Z,75.77
2023-02-18T18:28:20.574Z,75.20
2023-02-18T18:30:49.828Z,75.14
2023-02-18T18:33:28.830Z,73.84
2023-02-18T18:35:57.486Z,72.32
2023-02-18T18:38:26.217Z,73.44
2023-02-18T18:40:53.492Z,74.46
2023-02-18T18:43:40.429Z,72.59
2023-02-18T18:46:06.931Z,73.66
2023-02-18T18:48:33.394Z,71.65
2023-02-18T18:51:01.412Z,73.59
2023-02-18T18:53:30.992Z,73.49
2023-02-18T18:56:03.652Z,72.10
2023-02-18T18:58:30.568Z,72.23
2023-02-18T19:00:59.868Z,73.63
2023-02-18T19:03:28.276Z,73.60
2023-02-18T19:05:55.294Z,72.98
2023-02-18T19:08:22.020Z,73.40
2023-02-18T19:10:50.883Z,73.01
2023-02-18T19:13:22.839Z,72.34
2023-02-18T19:15:51.483Z,71.39
2023-02-18T19:18:20.636Z,72.61
2023-02-18T19:20:48.290Z,70.25
2023-02-18T19:23:15.043Z,69.99
2023-02-18T19:25:42.796Z,71.02
2023-02-18T19:28:13.622Z,72.93
2023-02-18T19:30:42.241Z,72.61
2023-02-18T19:33:11.181Z,70.86
2023-02-18T19:35:39.765Z,71.55
2023-02-18T19:38:14.056Z,69.04
2023-02-18T19:40:40.932Z,70.18
2023-02-18T19:43:07.850Z,68.49
2023-02-18T19:45:41.818Z,71.62
2023-02-18T19:48:09.829Z,70.25
2023-02-18T19:50:36.264Z,68.03
2023-02-18T19:53:02.707Z,71.63
2023-02-18T19:55:29.252Z,70.95
2023-02-18T19:57:55.705Z,70.72
2023-02-18T20:00:22.654Z,69.72
2023-02-18T20:02:49.752Z,72.78
2023-02-18T20:05:16.552Z,69.97
2023-02-18T20:07:45.975Z,70.29
2023-02-18T20:10:14.781Z,70.58
2023-02-18T20:12:41.269Z,71.04
2023-02-18T20:15:08.330Z,71.05
2023-02-18T20:17:35.145Z,70.31
2023-02-18T20:20:01.654Z,69.85
2023-02-18T20:22:28.265Z,70.56
2023-02-18T20:24:54.695Z,71.45
2023-02-18T20:27:21.205Z,69.43
2023-02-18T20:29:47.628Z,70.36
2023-02-18T20:32:14.098Z,71.70
2023-02-18T20:34:40.641Z,68.91
2023-02-18T20:37:07.037Z,70.24
2023-02-18T20:39:33.512Z,70.34
2023-02-18T20:42:08.034Z,70.76
2023-02-18T20:44:41.065Z,71.51
2023-02-18T20:47:07.616Z,71.36
2023-02-18T20:49:35.485Z,68.84
2023-02-18T20:52:02.352Z,69.92
2023-02-18T20:54:29.416Z,69.55
2023-02-18T20:56:55.960Z,67.47
2023-02-18T20:59:22.483Z,69.29
2023-02-18T21:01:49.572Z,71.61
2023-02-18T21:04:19.056Z,69.40
2023-02-18T21:06:46.409Z,67.19
2023-02-18T21:09:14.402Z,70.58
2023-02-18T21:11:41.717Z,71.06
2023-02-18T21:14:08.222Z,71.40
2023-02-18T21:16:41.062Z,72.53
2023-02-18T21:19:10.623Z,71.26
2023-02-18T21:21:37.240Z,68.63
2023-02-18T21:24:04.044Z,71.26
2023-02-18T21:26:30.560Z,72.85
2023-02-18T21:29:00.951Z,71.36
2023-02-18T21:31:31.260Z,71.07
2023-02-18T21:33:58.092Z,71.76
2023-02-18T21:36:26.155Z,72.34
2023-02-18T21:38:54.513Z,72.77
2023-02-18T21:41:21.484Z,72.30
2023-02-18T21:43:48.513Z,71.68
2023-02-18T21:46:18.363Z,71.28
2023-02-18T21:49:05.468Z,72.19
2023-02-18T21:51:53.699Z,72.46
2023-02-18T21:54:32.300Z,71.84
2023-02-18T21:57:00.382Z,71.61
2023-02-18T21:59:29.106Z,69.64
2023-02-18T22:01:56.550Z,70.91
2023-02-18T22:04:23.520Z,72.16
2023-02-18T22:06:50.002Z,72.88
2023-02-18T22:09:16.681Z,73.09
2023-02-18T22:11:43.193Z,73.27
2023-02-18T22:14:11.367Z,72.61
2023-02-18T22:16:38.272Z,70.15
2023-02-18T22:19:05.417Z,71.37
2023-02-18T22:21:32.009Z,71.74
2023-02-18T22:23:58.535Z,70.23
2023-02-18T22:26:25.077Z,73.27
2023-02-18T22:28:56.445Z,73.51
2023-02-18T22:31:23.326Z,70.82
2023-02-18T22:33:52.081Z,72.84
2023-02-18T22:36:20.841Z,74.12
2023-02-18T22:38:47.861Z,73.04
2023-02-18T22:41:16.625Z,75.23
2023-02-18T22:43:43.197Z,73.29
2023-02-18T22:46:13.270Z,73.37
2023-02-18T22:48:40.186Z,72.78
2023-02-18T22:51:13.142Z,73.49
2023-02-18T22:53:41.386Z,71.70
2023-02-18T22:56:10.582Z,69.39
2023-02-18T22:58:37.042Z,69.84
2023-02-18T23:01:04.535Z,70.71
2023-02-18T23:03:31.123Z,70.03
2023-02-18T23:06:05.464Z,70.41
2023-02-18T23:08:33.296Z,72.38
2023-02-18T23:11:06.510Z,71.34
2023-02-18T23:13:33.601Z,73.34
2023-02-18T23:16:02.319Z,72.91
2023-02-18T23:18:30.029Z,71.33
2023-02-18T23:21:20.257Z,72.59
2023-02-18T23:23:48.156Z,75.03
2023-02-18T23:26:14.926Z,73.13
2023-02-18T23:28:47.664Z,71.74
2023-02-18T23:31:21.426Z,74.20
2023-02-18T23:33:52.374Z,71.37
2023-02-18T23:36:21.574Z,74.04
2023-02-18T23:38:49.809Z,72.75
2023-02-18T23:41:16.589Z,71.90
2023-02-18T23:43:43.666Z,73.93
2023-02-18T23:46:10.262Z,72.39
2023-02-18T23:48:38.412Z,70.64
2023-02-18T23:51:07.069Z,69.38
2023-02-18T23:53:35.275Z,69.48
2023-02-18T23:56:10.697Z,70.76
2023-02-18T23:58:37.723Z,69.17
